createdAt,value
2023-02-13T00:00:59.057Z,5.18
2023-02-13T00:03:27.394Z,5.19
2023-02-13T00:05:55.569Z,5.18
2023-02-13T00:08:23.645Z,5.17
2023-02-13T00:10:51.692Z,5.13
2023-02-13T00:13:19.620Z,5.10
2023-02-13T00:15:58.595Z,5.13
2023-02-13T00:18:27.678Z,5.16
2023-02-13T00:21:06.589Z,5.17
2023-02-13T00:23:35.075Z,5.16
2023-02-13T00:26:11.459Z,5.17
2023-02-13T00:28:40.962Z,5.13
2023-02-13T00:31:11.080Z,5.09
2023-02-13T00:33:39.284Z,5.10
2023-02-13T00:36:15.559Z,5.12
2023-02-13T00:38:43.724Z,5.15
2023-02-13T00:41:12.800Z,5.13
2023-02-13T00:43:40.758Z,5.10
2023-02-13T00:46:08.875Z,5.06
2023-02-13T00:48:37.312Z,5.03
2023-02-13T00:51:07.426Z,5.02
2023-02-13T00:53:35.946Z,5.04
2023-02-13T00:56:04.612Z,5.03
2023-02-13T00:58:32.891Z,5.04
2023-02-13T01:01:00.962Z,5.04
2023-02-13T01:03:29.231Z,5.04
2023-02-13T01:05:58.022Z,5.06
2023-02-13T01:08:28.549Z,5.07
2023-02-13T01:10:57.140Z,5.09
2023-02-13T01:13:25.946Z,5.08
2023-02-13T01:15:55.223Z,5.05
2023-02-13T01:18:23.677Z,5.03
2023-02-13T01:21:00.310Z,5.05
2023-02-13T01:23:36.374Z,5.08
2023-02-13T01:26:05.443Z,5.10
2023-02-13T01:28:33.669Z,5.08
2023-02-13T01:31:02.196Z,5.05
2023-02-13T01:33:30.779Z,5.03
2023-02-13T01:36:00.478Z,5.05
2023-02-13T01:38:28.944Z,5.08
2023-02-13T01:40:57.214Z,5.10
2023-02-13T01:43:43.048Z,5.10
2023-02-13T01:46:11.311Z,5.08
2023-02-13T01:48:39.282Z,5.04
2023-02-13T01:51:12.221Z,5.05
2023-02-13T01:53:46.669Z,5.07
2023-02-13T01:56:46.002Z,5.11
2023-02-13T01:59:18.241Z,5.13
2023-02-13T02:01:46.490Z,5.13
2023-02-13T02:04:16.280Z,5.12
2023-02-13T02:06:47.109Z,5.09
2023-02-13T02:09:26.011Z,5.09
2023-02-13T02:12:13.948Z,5.14
2023-02-13T02:14:42.490Z,5.17
2023-02-13T02:17:11.679Z,5.13
2023-02-13T02:19:45.167Z,5.10
2023-02-13T02:22:41.434Z,5.08
2023-02-13T02:25:18.828Z,5.09
2023-02-13T02:27:52.592Z,5.12
2023-02-13T02:30:46.300Z,5.12
2023-02-13T02:33:30.993Z,5.12
2023-02-13T02:36:24.800Z,5.09
2023-02-13T02:39:15.349Z,5.07
2023-02-13T02:41:51.411Z,5.09
2023-02-13T02:44:25.777Z,5.11
2023-02-13T02:47:15.836Z,5.13
2023-02-13T02:50:02.125Z,5.15
2023-02-13T02:52:33.468Z,5.17
2023-02-13T02:55:19.768Z,5.18
2023-02-13T02:59:02.281Z,5.19
2023-02-13T03:01:49.403Z,5.19
2023-02-13T03:04:43.354Z,5.17
2023-02-13T03:07:12.042Z,5.13
2023-02-13T03:10:00.936Z,5.10
2023-02-13T03:12:59.609Z,5.09
2023-02-13T03:15:27.619Z,5.10
2023-02-13T03:18:14.137Z,5.12
2023-02-13T03:21:26.193Z,5.14
2023-02-13T03:24:02.190Z,5.13
2023-02-13T03:27:09.027Z,5.15
2023-02-13T03:30:06.186Z,5.16
2023-02-13T03:32:57.496Z,5.14
2023-02-13T03:35:56.491Z,5.12
2023-02-13T03:38:28.526Z,5.10
2023-02-13T03:41:20.673Z,5.10
2023-02-13T03:44:10.599Z,5.11
2023-02-13T03:46:42.103Z,5.18
2023-02-13T03:49:40.728Z,5.20
2023-02-13T03:52:17.106Z,5.20
2023-02-13T03:55:07.749Z,5.18
2023-02-13T03:57:55.268Z,5.16
2023-02-13T04:00:23.588Z,5.16
2023-02-13T04:02:59.219Z,5.16
2023-02-13T04:05:29.141Z,5.15
2023-02-13T04:07:57.131Z,5.14
2023-02-13T04:10:25.218Z,5.15
2023-02-13T04:12:57.489Z,5.15
2023-02-13T04:15:28.595Z,5.16
2023-02-13T04:18:05.911Z,5.14
2023-02-13T04:20:33.983Z,5.10
2023-02-13T04:23:08.875Z,5.07
2023-02-13T04:25:38.201Z,5.08
2023-02-13T04:28:06.806Z,5.09
2023-02-13T04:30:34.923Z,5.12
2023-02-13T04:33:03.038Z,5.12
2023-02-13T04:35:31.208Z,5.12
2023-02-13T04:37:59.152Z,5.09
2023-02-13T04:40:27.119Z,5.09
2023-02-13T04:42:55.126Z,5.10
2023-02-13T04:45:23.125Z,5.12
2023-02-13T04:47:52.532Z,5.14
2023-02-13T04:50:20.823Z,5.15
2023-02-13T04:52:52.747Z,5.13
2023-02-13T04:55:20.785Z,5.08
2023-02-13T04:57:48.736Z,5.09
2023-02-13T05:00:17.050Z,5.10
2023-02-13T05:02:45.184Z,5.12
2023-02-13T05:05:13.383Z,5.09
2023-02-13T05:07:42.174Z,5.11
2023-02-13T05:10:11.026Z,5.11
2023-02-13T05:12:39.086Z,5.10
2023-02-13T05:15:07.560Z,5.06
2023-02-13T05:17:35.654Z,5.04
2023-02-13T05:20:03.908Z,5.05
2023-02-13T05:22:50.779Z,5.07
2023-02-13T05:25:18.861Z,5.09
2023-02-13T05:27:47.062Z,5.10
2023-02-13T05:30:15.570Z,5.07
2023-02-13T05:32:43.636Z,5.04
2023-02-13T05:35:11.655Z,5.03
2023-02-13T05:37:39.567Z,5.05
2023-02-13T05:40:08.054Z,5.07
2023-02-13T05:42:36.307Z,5.08
2023-02-13T05:45:04.521Z,5.04
2023-02-13T05:47:32.527Z,5.03
2023-02-13T05:50:00.614Z,4.97
2023-02-13T05:52:28.643Z,4.97
2023-02-13T05:54:56.585Z,5.00
2023-02-13T05:57:24.654Z,5.02
2023-02-13T05:59:52.655Z,5.01
2023-02-13T06:02:20.783Z,5.00
2023-02-13T06:04:48.882Z,4.99
2023-02-13T06:07:16.819Z,4.98
2023-02-13T06:09:44.858Z,5.02
2023-02-13T06:12:12.785Z,5.06
2023-02-13T06:14:40.900Z,5.07
2023-02-13T06:17:08.964Z,5.07
2023-02-13T06:19:37.123Z,5.05
2023-02-13T06:22:05.106Z,5.01
2023-02-13T06:24:33.160Z,5.03
2023-02-13T06:27:01.510Z,5.06
2023-02-13T06:29:32.243Z,5.10
2023-02-13T06:32:00.356Z,5.10
2023-02-13T06:34:28.884Z,5.08
2023-02-13T06:36:57.075Z,5.05
2023-02-13T06:39:25.106Z,5.05
2023-02-13T06:41:53.055Z,5.08
2023-02-13T06:44:21.155Z,5.14
2023-02-13T06:46:49.143Z,5.17
2023-02-13T06:49:17.167Z,5.17
2023-02-13T06:51:45.359Z,5.13
2023-02-13T06:54:13.415Z,5.12
2023-02-13T06:56:41.500Z,5.13
2023-02-13T06:59:09.580Z,5.18
2023-02-13T07:01:37.822Z,5.18
2023-02-13T07:04:06.837Z,5.20
2023-02-13T07:06:35.467Z,5.21
2023-02-13T07:09:03.901Z,5.20
2023-02-13T07:11:32.581Z,5.21
2023-02-13T07:14:00.725Z,5.21
2023-02-13T07:16:28.700Z,5.22
2023-02-13T07:18:56.848Z,5.26
2023-02-13T07:21:25.047Z,5.28
2023-02-13T07:23:54.370Z,5.30
2023-02-13T07:26:22.530Z,5.29
2023-02-13T07:28:59.461Z,5.30
2023-02-13T07:31:34.481Z,5.39
2023-02-13T07:34:02.738Z,5.45
2023-02-13T07:36:30.657Z,5.47
2023-02-13T07:38:58.721Z,5.48
2023-02-13T07:41:27.139Z,5.47
2023-02-13T07:43:56.560Z,5.49
2023-02-13T07:46:24.727Z,5.56
2023-02-13T07:48:53.102Z,5.57
2023-02-13T07:51:25.556Z,5.59
2023-02-13T07:53:54.443Z,5.58
2023-02-13T07:56:23.676Z,5.59
2023-02-13T07:58:51.673Z,5.61
2023-02-13T08:01:20.428Z,5.68
2023-02-13T08:03:51.384Z,5.72
2023-02-13T08:06:20.119Z,5.74
2023-02-13T08:08:48.447Z,5.79
2023-02-13T08:11:54.359Z,5.77
2023-02-13T08:14:26.404Z,5.78
2023-02-13T08:16:54.978Z,5.82
2023-02-13T08:19:23.210Z,5.81
2023-02-13T08:21:51.766Z,5.88
2023-02-13T08:24:19.833Z,5.85
2023-02-13T08:26:47.814Z,5.87
2023-02-13T08:29:15.868Z,5.93
2023-02-13T08:31:44.305Z,5.98
2023-02-13T08:34:12.659Z,5.96
2023-02-13T08:36:41.087Z,5.99
2023-02-13T08:39:10.225Z,6.01
2023-02-13T08:41:38.861Z,6.00
2023-02-13T08:44:06.937Z,5.98
2023-02-13T08:46:35.161Z,6.01
2023-02-13T08:49:03.432Z,5.97
2023-02-13T08:51:31.536Z,5.98
2023-02-13T08:53:59.657Z,5.95
2023-02-13T08:56:27.763Z,6.00
2023-02-13T08:58:56.065Z,6.05
2023-02-13T09:01:24.345Z,6.09
2023-02-13T09:03:52.525Z,6.14
2023-02-13T09:06:21.677Z,6.14
2023-02-13T09:08:50.124Z,6.11
2023-02-13T09:11:20.356Z,6.12
2023-02-13T09:13:48.753Z,6.15
2023-02-13T09:16:17.072Z,6.19
2023-02-13T09:18:47.808Z,6.24
2023-02-13T09:21:18.640Z,6.28
2023-02-13T09:23:46.954Z,6.29
2023-02-13T09:26:15.881Z,6.29
2023-02-13T09:28:44.006Z,6.36
2023-02-13T09:31:17.756Z,6.45
2023-02-13T09:33:46.555Z,6.54
2023-02-13T09:36:20.249Z,6.64
2023-02-13T09:38:48.822Z,6.64
2023-02-13T09:41:34.416Z,6.66
2023-02-13T09:44:37.811Z,6.74
2023-02-13T09:47:29.350Z,6.79
2023-02-13T09:50:00.863Z,6.81
2023-02-13T09:52:33.174Z,6.83
2023-02-13T09:55:14.811Z,6.84
2023-02-13T09:58:04.968Z,6.83
2023-02-13T10:00:40.562Z,6.93
2023-02-13T10:03:35.295Z,7.00
2023-02-13T10:06:24.636Z,6.98
2023-02-13T10:09:13.725Z,7.02
2023-02-13T10:12:06.299Z,7.08
2023-02-13T10:14:52.994Z,7.11
2023-02-13T10:17:27.236Z,7.15
2023-02-13T10:20:18.936Z,7.15
2023-02-13T10:22:49.908Z,7.15
2023-02-13T10:25:43.772Z,7.04
2023-02-13T10:28:15.964Z,7.10
2023-02-13T10:30:52.808Z,7.13
2023-02-13T10:33:28.491Z,7.14
2023-02-13T10:36:05.525Z,7.13
2023-02-13T10:38:35.864Z,7.18
2023-02-13T10:41:11.269Z,7.16
2023-02-13T10:43:53.523Z,7.17
2023-02-13T10:46:29.418Z,7.22
2023-02-13T10:49:25.347Z,7.24
2023-02-13T10:52:09.098Z,7.20
2023-02-13T10:55:08.626Z,7.20
2023-02-13T10:58:02.046Z,7.17
2023-02-13T11:00:59.838Z,7.20
2023-02-13T11:03:29.325Z,7.27
2023-02-13T11:05:58.851Z,7.25
2023-02-13T11:08:35.410Z,7.22
2023-02-13T11:11:03.488Z,7.26
2023-02-13T11:13:31.843Z,7.28
2023-02-13T11:16:04.229Z,7.28
2023-02-13T11:18:38.135Z,7.32
2023-02-13T11:21:16.776Z,7.32
2023-02-13T11:23:46.300Z,7.37
2023-02-13T11:26:27.640Z,7.33
2023-02-13T11:28:58.146Z,7.33
2023-02-13T11:31:31.722Z,7.32
2023-02-13T11:34:22.970Z,7.31
2023-02-13T11:36:55.636Z,7.33
2023-02-13T11:39:25.029Z,7.33
2023-02-13T11:41:53.123Z,7.30
2023-02-13T11:44:28.122Z,7.31
2023-02-13T11:46:57.976Z,7.30
2023-02-13T11:49:28.064Z,7.35
2023-02-13T11:51:57.635Z,7.37
2023-02-13T11:54:45.052Z,7.36
2023-02-13T11:57:16.320Z,7.32
2023-02-13T11:59:45.125Z,7.33
2023-02-13T12:02:30.610Z,7.37
2023-02-13T12:05:21.554Z,7.40
2023-02-13T12:07:49.912Z,7.44
2023-02-13T12:10:38.233Z,7.49
2023-02-13T12:13:28.984Z,7.44
2023-02-13T12:16:03.293Z,7.42
2023-02-13T12:18:37.789Z,7.47
2023-02-13T12:21:11.342Z,7.52
2023-02-13T12:23:54.815Z,7.54
2023-02-13T12:26:38.105Z,7.54
2023-02-13T12:29:44.040Z,7.45
2023-02-13T12:32:19.481Z,7.45
2023-02-13T12:35:45.402Z,7.44
2023-02-13T12:38:37.852Z,7.44
2023-02-13T12:41:24.538Z,7.43
2023-02-13T12:44:10.885Z,7.39
2023-02-13T12:46:41.571Z,7.33
2023-02-13T12:49:36.704Z,7.31
2023-02-13T12:52:23.359Z,7.35
2023-02-13T12:55:02.376Z,7.33
2023-02-13T12:57:49.945Z,7.36
2023-02-13T13:00:44.758Z,7.41
2023-02-13T13:03:31.433Z,7.47
2023-02-13T13:06:30.532Z,7.47
2023-02-13T13:09:07.688Z,7.52
2023-02-13T13:11:55.937Z,7.48
2023-02-13T13:14:53.676Z,7.49
2023-02-13T13:17:24.559Z,7.37
2023-02-13T13:20:15.004Z,7.36
2023-02-13T13:22:57.260Z,7.31
2023-02-13T13:25:49.058Z,7.26
2023-02-13T13:28:22.573Z,7.22
2023-02-13T13:30:50.799Z,7.18
2023-02-13T13:33:23.254Z,7.14
2023-02-13T13:36:04.723Z,7.13
2023-02-13T13:38:42.366Z,7.07
2023-02-13T13:41:29.820Z,7.01
2023-02-13T13:44:26.637Z,6.99
2023-02-13T13:46:58.042Z,7.00
2023-02-13T13:49:45.343Z,6.96
2023-02-13T13:52:24.093Z,6.91
2023-02-13T13:54:55.036Z,6.89
2023-02-13T13:57:43.350Z,6.83
2023-02-13T14:00:14.107Z,6.77
2023-02-13T14:03:22.128Z,6.68
2023-02-13T14:06:04.982Z,6.65
2023-02-13T14:08:44.836Z,6.65
2023-02-13T14:11:34.428Z,6.61
2023-02-13T14:14:02.710Z,6.54
2023-02-13T14:16:40.967Z,6.47
2023-02-13T14:19:24.437Z,6.47
2023-02-13T14:21:53.015Z,6.43
2023-02-13T14:24:21.177Z,6.45
2023-02-13T14:27:04.671Z,6.45
2023-02-13T14:29:34.398Z,6.44
2023-02-13T14:32:05.497Z,6.41
2023-02-13T14:34:35.950Z,6.38
2023-02-13T14:37:30.492Z,6.40
2023-02-13T14:40:20.595Z,6.37
2023-02-13T14:42:59.055Z,6.30
2023-02-13T14:45:32.629Z,6.37
2023-02-13T14:48:11.937Z,6.39
2023-02-13T14:50:49.066Z,6.40
2023-02-13T14:53:27.193Z,6.41
2023-02-13T14:56:15.022Z,6.29
2023-02-13T14:58:51.102Z,6.31
2023-02-13T15:01:30.771Z,6.29
2023-02-13T15:04:20.817Z,6.26
2023-02-13T15:06:48.986Z,6.27
2023-02-13T15:09:39.118Z,6.30
2023-02-13T15:12:33.213Z,6.28
2023-02-13T15:15:01.963Z,6.24
2023-02-13T15:17:32.925Z,6.18
2023-02-13T15:20:07.624Z,6.13
2023-02-13T15:22:37.266Z,6.09
2023-02-13T15:25:07.593Z,6.06
2023-02-13T15:27:41.919Z,6.04
2023-02-13T15:30:21.898Z,6.05
2023-02-13T15:32:57.845Z,6.06
2023-02-13T15:35:28.522Z,6.05
2023-02-13T15:37:56.797Z,6.00
2023-02-13T15:40:26.485Z,5.97
2023-02-13T15:42:55.576Z,5.90
2023-02-13T15:45:25.754Z,5.85
2023-02-13T15:47:56.213Z,5.80
2023-02-13T15:50:35.167Z,5.73
2023-02-13T15:53:05.010Z,5.70
2023-02-13T15:55:36.441Z,5.61
2023-02-13T15:58:04.463Z,5.50
2023-02-13T16:00:34.547Z,5.40
2023-02-13T16:03:04.881Z,5.30
2023-02-13T16:05:40.498Z,5.18
2023-02-13T16:08:38.782Z,5.08
2023-02-13T16:11:16.810Z,4.99
2023-02-13T16:14:07.832Z,4.96
2023-02-13T16:17:02.021Z,4.97
2023-02-13T16:19:43.784Z,5.00
2023-02-13T16:22:22.129Z,5.03
2023-02-13T16:24:53.953Z,5.06
2023-02-13T16:27:26.545Z,5.10
2023-02-13T16:29:58.919Z,5.14
2023-02-13T16:32:32.454Z,5.16
2023-02-13T16:35:29.752Z,5.16
2023-02-13T16:38:01.888Z,5.21
2023-02-13T16:40:33.985Z,5.22
2023-02-13T16:43:37.464Z,5.17
2023-02-13T16:46:23.983Z,5.04
2023-02-13T16:49:01.152Z,4.92
2023-02-13T16:51:38.874Z,4.80
2023-02-13T16:54:16.006Z,4.72
2023-02-13T16:56:47.992Z,4.62
2023-02-13T16:59:35.155Z,4.54
2023-02-13T17:02:17.017Z,4.44
2023-02-13T17:05:09.900Z,4.34
2023-02-13T17:07:49.330Z,4.26
2023-02-13T17:10:32.624Z,4.21
2023-02-13T17:13:12.988Z,4.16
2023-02-13T17:15:41.960Z,4.12
2023-02-13T17:18:10.151Z,4.06
2023-02-13T17:20:38.774Z,3.99
2023-02-13T17:23:07.534Z,3.97
2023-02-13T17:25:37.669Z,3.98
2023-02-13T17:28:25.712Z,4.01
2023-02-13T17:30:56.385Z,4.04
2023-02-13T17:33:29.523Z,4.02
2023-02-13T17:35:57.765Z,3.98
2023-02-13T17:38:26.005Z,4.00
2023-02-13T17:40:54.349Z,4.03
2023-02-13T17:43:22.916Z,4.05
2023-02-13T17:45:51.199Z,4.08
2023-02-13T17:48:19.508Z,4.11
2023-02-13T17:50:48.452Z,4.12
2023-02-13T17:53:29.866Z,4.14
2023-02-13T17:55:58.655Z,4.17
2023-02-13T17:58:26.692Z,4.22
2023-02-13T18:00:54.794Z,4.30
2023-02-13T18:03:22.823Z,4.37
2023-02-13T18:05:51.087Z,4.40
2023-02-13T18:08:20.378Z,4.43
2023-02-13T18:10:48.547Z,4.47
2023-02-13T18:13:16.581Z,4.51
2023-02-13T18:15:45.073Z,4.54
2023-02-13T18:18:16.193Z,4.55
2023-02-13T18:20:44.386Z,4.56
2023-02-13T18:23:14.161Z,4.57
2023-02-13T18:25:42.621Z,4.56
2023-02-13T18:28:11.258Z,4.56
2023-02-13T18:30:42.115Z,4.59
2023-02-13T18:33:10.299Z,4.59
2023-02-13T18:35:38.451Z,4.58
2023-02-13T18:38:06.724Z,4.53
2023-02-13T18:40:34.833Z,4.49
2023-02-13T18:43:03.001Z,4.42
2023-02-13T18:45:31.333Z,4.41
2023-02-13T18:47:59.357Z,4.44
2023-02-13T18:50:27.672Z,4.40
2023-02-13T18:52:55.950Z,4.33
2023-02-13T18:55:24.020Z,4.20
2023-02-13T18:57:53.009Z,4.09
2023-02-13T19:00:23.460Z,3.97
2023-02-13T19:02:51.947Z,3.93
2023-02-13T19:05:20.194Z,3.92
2023-02-13T19:07:48.578Z,3.89
2023-02-13T19:10:16.849Z,3.84
2023-02-13T19:12:44.962Z,3.79
2023-02-13T19:15:13.510Z,3.80
2023-02-13T19:17:41.695Z,3.84
2023-02-13T19:20:11.060Z,3.88
2023-02-13T19:22:39.216Z,3.87
2023-02-13T19:25:07.833Z,3.81
2023-02-13T19:27:37.921Z,3.73
2023-02-13T19:30:09.707Z,3.62
2023-02-13T19:32:38.019Z,3.50
2023-02-13T19:35:06.612Z,3.39
2023-02-13T19:37:43.375Z,3.31
2023-02-13T19:40:13.369Z,3.26
2023-02-13T19:42:41.472Z,3.20
2023-02-13T19:45:10.181Z,3.12
2023-02-13T19:47:38.107Z,3.06
2023-02-13T19:50:07.498Z,3.02
2023-02-13T19:52:35.600Z,2.99
2023-02-13T19:55:04.523Z,2.96
2023-02-13T19:57:32.579Z,2.93
2023-02-13T20:00:02.424Z,2.90
2023-02-13T20:02:40.140Z,2.89
2023-02-13T20:05:08.997Z,2.89
2023-02-13T20:07:37.027Z,2.91
2023-02-13T20:10:06.684Z,2.92
2023-02-13T20:12:34.700Z,2.87
2023-02-13T20:15:03.558Z,2.86
2023-02-13T20:17:31.805Z,2.85
2023-02-13T20:20:00.156Z,2.86
2023-02-13T20:22:28.276Z,2.90
2023-02-13T20:24:56.448Z,2.90
2023-02-13T20:27:24.428Z,2.93
2023-02-13T20:29:58.869Z,2.91
2023-02-13T20:32:34.676Z,2.85
2023-02-13T20:35:03.042Z,2.81
2023-02-13T20:37:31.785Z,2.81
2023-02-13T20:39:59.786Z,2.81
2023-02-13T20:42:27.938Z,2.78
2023-02-13T20:44:56.107Z,2.74
2023-02-13T20:47:24.065Z,2.70
2023-02-13T20:49:52.074Z,2.70
2023-02-13T20:52:20.759Z,2.70
2023-02-13T20:54:48.795Z,2.69
2023-02-13T20:57:16.803Z,2.66
2023-02-13T20:59:45.236Z,2.65
2023-02-13T21:02:13.353Z,2.66
2023-02-13T21:04:41.311Z,2.68
2023-02-13T21:07:09.413Z,2.66
2023-02-13T21:09:37.449Z,2.64
2023-02-13T21:12:05.591Z,2.63
2023-02-13T21:14:33.584Z,2.63
2023-02-13T21:17:01.548Z,2.61
2023-02-13T21:19:31.870Z,2.58
2023-02-13T21:22:12.095Z,2.57
2023-02-13T21:24:41.431Z,2.57
2023-02-13T21:27:10.722Z,2.54
2023-02-13T21:29:38.840Z,2.50
2023-02-13T21:32:06.866Z,2.48
2023-02-13T21:34:34.937Z,2.45
2023-02-13T21:37:02.938Z,2.45
2023-02-13T21:39:30.905Z,2.45
2023-02-13T21:41:58.915Z,2.44
2023-02-13T21:44:27.210Z,2.44
2023-02-13T21:46:55.300Z,2.43
2023-02-13T21:49:25.287Z,2.41
2023-02-13T21:51:53.510Z,2.39
2023-02-13T21:54:21.616Z,2.35
2023-02-13T21:56:50.136Z,2.29
2023-02-13T21:59:18.953Z,2.25
2023-02-13T22:01:50.176Z,2.27
2023-02-13T22:04:20.039Z,2.28
2023-02-13T22:06:49.838Z,2.27
2023-02-13T22:09:18.725Z,2.24
2023-02-13T22:11:47.167Z,2.18
2023-02-13T22:14:17.317Z,2.16
2023-02-13T22:16:45.967Z,2.15
2023-02-13T22:19:15.563Z,2.15
2023-02-13T22:21:44.256Z,2.15
2023-02-13T22:24:12.743Z,2.14
2023-02-13T22:26:42.738Z,2.14
2023-02-13T22:29:12.834Z,2.15
2023-02-13T22:31:42.939Z,2.11
2023-02-13T22:34:13.936Z,2.07
2023-02-13T22:36:43.059Z,2.04
2023-02-13T22:39:11.892Z,2.01
2023-02-13T22:41:40.084Z,2.00
2023-02-13T22:44:08.659Z,1.98
2023-02-13T22:46:36.643Z,1.95
2023-02-13T22:49:04.762Z,1.90
2023-02-13T22:51:34.615Z,1.88
2023-02-13T22:54:02.848Z,1.88
2023-02-13T22:56:31.151Z,1.88
2023-02-13T22:58:59.475Z,1.89
2023-02-13T23:01:28.026Z,1.91
2023-02-13T23:03:56.477Z,1.91
2023-02-13T23:06:25.003Z,1.87
2023-02-13T23:08:53.860Z,1.84
2023-02-13T23:11:43.747Z,1.82
2023-02-13T23:14:12.416Z,1.81
2023-02-13T23:16:59.893Z,1.77
2023-02-13T23:19:30.072Z,1.74
2023-02-13T23:21:59.173Z,1.71
2023-02-13T23:24:28.255Z,1.67
2023-02-13T23:26:56.240Z,1.67
2023-02-13T23:29:24.296Z,1.68
2023-02-13T23:31:52.462Z,1.67
2023-02-13T23:34:20.794Z,1.67
2023-02-13T23:36:48.884Z,1.67
2023-02-13T23:39:16.841Z,1.69
2023-02-13T23:41:44.782Z,1.69
2023-02-13T23:44:12.784Z,1.72
2023-02-13T23:46:43.333Z,1.78
2023-02-13T23:49:11.347Z,1.83
2023-02-13T23:51:39.244Z,1.89
2023-02-13T23:54:07.319Z,1.93
2023-02-13T23:56:35.402Z,1.99
2023-02-13T23:59:03.525Z,2.06
